Time,TemperatureF,DewpointF,PressureIn,WindDirection,WindDirectionDegrees,WindSpeedMPH,WindSpeedGustMPH,Humidity,HourlyPrecipIn,Conditions,Clouds,dailyrainin,SoftwareType,DateUTC
2013-05-21 00:02:00,54.7,53.9,29.91,East,79,0.0,0.0,97,0.00,,,0.01,Wunderground v.1.15,2013-05-21 04:02:00,
2013-05-21 00:03:00,54.7,53.9,29.91,East,79,0.0,0.0,97,0.00,,,0.01,Wunderground v.1.15,2013-05-21 04:03:00,
2013-05-21 00:06:00,54.7,53.9,29.91,East,79,0.0,0.0,97,0.00,,,0.01,Wunderground v.1.15,2013-05-21 04:06:00,
2013-05-21 00:11:00,54.8,54.0,29.91,East,79,0.0,0.0,97,0.00,,,0.01,Wunderground v.1.15,2013-05-21 04:11:00,
2013-05-21 00:15:00,54.8,54.0,29.90,East,79,0.0,0.0,97,0.00,,,0.01,Wunderground v.1.15,2013-05-21 04:15:00,
2013-05-21 00:19:00,55.0,54.2,29.90,East,79,0.0,0.0,97,0.00,,,0.01,Wunderground v.1.15,2013-05-21 04:19:00,
2013-05-21 00:24:00,55.1,54.3,29.90,East,79,0.0,0.0,97,0.00,,,0.01,Wunderground v.1.15,2013-05-21 04:24:00,
2013-05-21 00:30:00,55.2,54.4,29.90,East,79,0.0,0.0,97,0.00,,,0.01,Wunderground v.1.15,2013-05-21 04:30:00,
2013-05-21 00:35:00,55.4,54.6,29.90,East,79,0.0,0.0,97,0.00,,,0.01,Wunderground v.1.15,2013-05-21 04:35:00,
2013-05-21 00:40:00,55.5,54.7,29.90,East,79,0.0,0.0,97,0.00,,,0.00,Wunderground v.1.15,2013-05-21 04:40:00,
2013-05-21 00:46:00,55.7,54.9,29.90,East,79,0.0,0.0,97,0.00,,,0.00,Wunderground v.1.15,2013-05-21 04:46:00,
2013-05-21 00:51:00,55.9,55.1,29.90,East,79,0.0,0.0,97,0.00,,,0.00,Wunderground v.1.15,2013-05-21 04:51:00,
2013-05-21 00:57:00,56.0,55.2,29.90,East,79,0.0,0.0,97,0.00,,,0.00,Wunderground v.1.15,2013-05-21 04:57:00,
2013-05-21 01:03:00,56.0,55.2,29.89,East,79,0.0,0.0,97,0.00,,,0.00,Wunderground v.1.15,2013-05-21 05:03:00,
2013-05-21 01:08:00,55.9,55.1,29.89,East,79,0.0,0.0,97,0.00,,,0.00,Wunderground v.1.15,2013-05-21 05:08:00,
2013-05-21 01:13:00,55.9,55.1,29.88,East,79,0.0,0.0,97,0.00,,,0.00,Wunderground v.1.15,2013-05-21 05:13:00,
2013-05-21 01:19:00,55.5,54.7,29.88,East,79,0.0,0.0,97,0.00,,,0.00,Wunderground v.1.15,2013-05-21 05:19:00,
2013-05-21 01:24:00,55.4,54.6,29.88,East,79,0.0,0.0,97,0.00,,,0.00,Wunderground v.1.15,2013-05-21 05:24:00,
2013-05-21 01:30:00,55.2,54.4,29.88,East,79,0.0,0.0,97,0.00,,,0.00,Wunderground v.1.15,2013-05-21 05:30:00,
2013-05-21 01:35:00,54.9,54.1,29.88,East,79,0.0,0.0,97,0.00,,,0.00,Wunderground v.1.15,2013-05-21 05:35:00,
2013-05-21 01:40:00,55.0,54.2,29.88,East,79,0.0,0.0,97,0.00,,,0.00,Wunderground v.1.15,2013-05-21 05:40:00,
2013-05-21 01:46:00,55.1,54.3,29.87,East,79,0.0,0.0,97,0.00,,,0.00,Wunderground v.1.15,2013-05-21 05:46:00,
2013-05-21 01:51:00,54.9,54.1,29.87,East,79,0.0,0.0,97,0.00,,,0.00,Wunderground v.1.15,2013-05-21 05:51:00,
2013-05-21 01:57:00,55.1,54.3,29.87,East,79,0.0,0.0,97,0.00,,,0.00,Wunderground v.1.15,2013-05-21 05:57:00,
2013-05-21 02:02:00,55.2,54.4,29.87,East,79,0.0,0.0,97,0.00,,,0.00,Wunderground v.1.15,2013-05-21 06:02:00,
2013-05-21 02:07:00,55.3,54.5,29.87,East,79,0.0,0.0,97,0.00,,,0.00,Wunderground v.1.15,2013-05-21 06:07:00,
2013-05-21 02:12:00,55.4,54.6,29.86,East,79,0.0,0.0,97,0.00,,,0.00,Wunderground v.1.15,2013-05-21 06:12:00,
2013-05-21 02:17:00,55.4,54.6,29.86,East,79,0.0,0.0,97,0.00,,,0.00,Wunderground v.1.15,2013-05-21 06:17:00,
2013-05-21 02:22:00,55.4,54.6,29.86,East,79,0.0,0.0,97,0.00,,,0.00,Wunderground v.1.15,2013-05-21 06:22:00,
2013-05-21 02:27:00,55.2,54.4,29.85,East,79,0.0,0.0,97,0.00,,,0.00,Wunderground v.1.15,2013-05-21 06:27:00,
2013-05-21 02:32:00,55.5,54.7,29.86,East,79,0.0,0.0,97,0.00,,,0.00,Wunderground v.1.15,2013-05-21 06:32:00,
2013-05-21 02:37:00,56.0,55.2,29.86,East,79,0.0,0.0,97,0.00,,,0.00,Wunderground v.1.15,2013-05-21 06:37:00,
2013-05-21 02:42:00,55.5,54.7,29.86,East,79,0.0,0.0,97,0.00,,,0.00,Wunderground v.1.15,2013-05-21 06:42:00,
2013-05-21 02:47:00,55.4,54.6,29.85,East,79,0.0,0.0,97,0.00,,,0.00,Wunderground v.1.15,2013-05-21 06:47:00,
2013-05-21 02:52:00,55.7,54.9,29.85,East,79,0.0,0.0,97,0.00,,,0.00,Wunderground v.1.15,2013-05-21 06:52:00,
2013-05-21 02:57:00,55.9,55.1,29.85,East,79,0.0,0.0,97,0.00,,,0.00,Wunderground v.1.15,2013-05-21 06:57:00,
2013-05-21 03:02:00,55.9,55.1,29.85,East,79,0.0,0.0,97,0.00,,,0.00,Wunderground v.1.15,2013-05-21 07:02:00,
2013-05-21 03:07:00,55.7,54.9,29.85,East,84,0.0,0.0,97,0.00,,,0.00,Wunderground v.1.15,2013-05-21 07:07:00,
2013-05-21 03:12:00,55.6,54.8,29.85,East,87,0.0,0.0,97,0.00,,,0.00,Wunderground v.1.15,2013-05-21 07:12:00,
2013-05-21 03:17:00,56.3,55.5,29.85,East,84,0.0,0.0,97,0.00,,,0.00,Wunderground v.1.15,2013-05-21 07:17:00,
2013-05-21 03:22:00,57.5,56.9,29.84,East,86,0.0,1.0,98,0.00,,,0.00,Wunderground v.1.15,2013-05-21 07:22:00,
2013-05-21 03:27:00,57.3,56.7,29.84,East,84,0.0,1.0,98,0.00,,,0.00,Wunderground v.1.15,2013-05-21 07:27:00,
2013-05-21 03:32:00,56.9,56.3,29.85,SE,139,0.0,1.0,98,0.00,,,0.00,Wunderground v.1.15,2013-05-21 07:32:00,
2013-05-21 03:37:00,56.5,55.9,29.85,SE,140,0.0,1.0,98,0.00,,,0.00,Wunderground v.1.15,2013-05-21 07:37:00,
2013-05-21 03:42:00,57.2,56.4,29.85,SE,127,3.0,4.0,97,0.00,,,0.00,Wunderground v.1.15,2013-05-21 07:42:00,
2013-05-21 03:47:00,57.7,57.1,29.85,ESE,115,1.0,4.0,98,0.00,,,0.00,Wunderground v.1.15,2013-05-21 07:47:00,
2013-05-21 03:52:00,58.4,57.8,29.85,ESE,110,0.0,2.0,98,0.00,,,0.00,Wunderground v.1.15,2013-05-21 07:52:00,
2013-05-21 03:57:00,57.9,57.3,29.85,East,100,0.0,2.0,98,0.00,,,0.00,Wunderground v.1.15,2013-05-21 07:57:00,
2013-05-21 04:02:00,57.9,57.3,29.85,East,100,4.0,4.0,98,0.00,,,0.00,Wunderground v.1.15,2013-05-21 08:02:00,
2013-05-21 04:07:00,58.4,57.8,29.84,East,87,1.0,5.0,98,0.00,,,0.00,Wunderground v.1.15,2013-05-21 08:07:00,
2013-05-21 04:12:00,58.2,57.6,29.84,ESE,123,2.0,3.0,98,0.00,,,0.00,Wunderground v.1.15,2013-05-21 08:12:00,
2013-05-21 04:17:00,58.8,58.2,29.84,ESE,110,1.0,3.0,98,0.00,,,0.00,Wunderground v.1.15,2013-05-21 08:17:00,
2013-05-21 04:22:00,58.7,58.1,29.84,East,89,3.0,3.0,98,0.00,,,0.00,Wunderground v.1.15,2013-05-21 08:22:00,
2013-05-21 04:27:00,59.0,58.4,29.84,East,89,0.0,3.0,98,0.00,,,0.00,Wunderground v.1.15,2013-05-21 08:27:00,
2013-05-21 04:32:00,59.0,58.2,29.84,East,95,0.0,2.0,97,0.00,,,0.00,Wunderground v.1.15,2013-05-21 08:32:00,
2013-05-21 04:37:00,58.7,57.9,29.84,ESE,119,0.0,2.0,97,0.00,,,0.00,Wunderground v.1.15,2013-05-21 08:37:00,
2013-05-21 04:42:00,57.6,56.5,29.84,ESE,119,0.0,0.0,96,0.00,,,0.00,Wunderground v.1.15,2013-05-21 08:42:00,
2013-05-21 04:47:00,57.0,55.9,29.84,NE,53,0.0,0.0,96,0.00,,,0.00,Wunderground v.1.15,2013-05-21 08:47:00,
2013-05-21 04:52:00,57.7,56.9,29.84,NE,52,0.0,0.0,97,0.00,,,0.00,Wunderground v.1.15,2013-05-21 08:52:00,
2013-05-21 04:57:00,56.8,55.7,29.84,ESE,103,0.0,0.0,96,0.00,,,0.00,Wunderground v.1.15,2013-05-21 08:57:00,
2013-05-21 05:02:00,56.5,55.7,29.84,ESE,103,0.0,0.0,97,0.00,,,0.00,Wunderground v.1.15,2013-05-21 09:02:00,
2013-05-21 05:07:00,56.2,55.4,29.84,ESE,102,0.0,0.0,97,0.00,,,0.00,Wunderground v.1.15,2013-05-21 09:07:00,
2013-05-21 05:12:00,56.3,55.5,29.84,ESE,102,0.0,0.0,97,0.00,,,0.00,Wunderground v.1.15,2013-05-21 09:12:00,
2013-05-21 05:17:00,57.0,56.2,29.84,East,98,0.0,0.0,97,0.00,,,0.00,Wunderground v.1.15,2013-05-21 09:17:00,
2013-05-21 05:22:00,56.6,55.8,29.84,East,98,0.0,0.0,97,0.00,,,0.00,Wunderground v.1.15,2013-05-21 09:22:00,
2013-05-21 05:27:00,56.4,55.6,29.83,East,99,0.0,0.0,97,0.00,,,0.00,Wunderground v.1.15,2013-05-21 09:27:00,
2013-05-21 05:32:00,57.7,56.9,29.82,SE,137,2.0,4.0,97,0.00,,,0.00,Wunderground v.1.15,2013-05-21 09:32:00,
2013-05-21 05:37:00,58.7,58.1,29.82,East,99,4.0,5.0,98,0.00,,,0.00,Wunderground v.1.15,2013-05-21 09:37:00,
2013-05-21 05:42:00,59.4,58.8,29.80,ESE,106,5.0,6.0,98,0.00,,,0.00,Wunderground v.1.15,2013-05-21 09:42:00,
2013-05-21 05:47:00,59.9,59.3,29.79,SE,130,6.0,9.0,98,0.00,,,0.00,Wunderground v.1.15,2013-05-21 09:47:00,
2013-05-21 05:52:00,60.3,59.7,29.78,ESE,104,6.0,9.0,98,0.00,,,0.00,Wunderground v.1.15,2013-05-21 09:52:00,
2013-05-21 05:57:00,60.8,59.9,29.78,East,89,5.0,9.0,97,0.00,,,0.00,Wunderground v.1.15,2013-05-21 09:57:00,
2013-05-21 06:02:00,61.1,60.0,29.79,ESE,119,3.0,6.0,96,0.00,,,0.00,Wunderground v.1.15,2013-05-21 10:02:00,
2013-05-21 06:07:00,61.2,59.8,29.79,SSE,148,3.0,6.0,95,0.00,,,0.00,Wunderground v.1.15,2013-05-21 10:07:00,
2013-05-21 06:12:00,61.2,59.8,29.80,South,181,3.0,3.0,95,0.00,,,0.00,Wunderground v.1.15,2013-05-21 10:12:00,
2013-05-21 06:17:00,61.2,59.8,29.81,West,262,1.0,3.0,95,0.00,,,0.00,Wunderground v.1.15,2013-05-21 10:17:00,
2013-05-21 06:22:00,61.0,59.3,29.82,West,262,0.0,1.0,94,0.00,,,0.00,Wunderground v.1.15,2013-05-21 10:22:00,
2013-05-21 06:27:00,60.7,59.0,29.82,SE,137,0.0,1.0,94,0.00,,,0.00,Wunderground v.1.15,2013-05-21 10:27:00,
2013-05-21 06:32:00,60.2,58.5,29.82,SE,137,0.0,0.0,94,0.00,,,0.00,Wunderground v.1.15,2013-05-21 10:32:00,
2013-05-21 06:37:00,60.3,59.2,29.82,East,95,2.0,3.0,96,0.00,,,0.00,Wunderground v.1.15,2013-05-21 10:37:00,
2013-05-21 06:42:00,60.8,59.7,29.83,East,81,3.0,6.0,96,0.00,,,0.00,Wunderground v.1.15,2013-05-21 10:42:00,
2013-05-21 06:47:00,61.1,59.7,29.82,East,91,1.0,6.0,95,0.00,,,0.00,Wunderground v.1.15,2013-05-21 10:47:00,
2013-05-21 06:52:00,61.1,59.7,29.82,East,99,2.0,3.0,95,0.00,,,0.00,Wunderground v.1.15,2013-05-21 10:52:00,
2013-05-21 06:57:00,61.2,59.8,29.83,ESE,102,2.0,3.0,95,0.00,,,0.00,Wunderground v.1.15,2013-05-21 10:57:00,
2013-05-21 07:02:00,61.4,60.0,29.83,SSE,147,1.0,2.0,95,0.00,,,0.00,Wunderground v.1.15,2013-05-21 11:02:00,
2013-05-21 07:07:00,61.6,60.2,29.83,ESE,111,2.0,3.0,95,0.00,,,0.00,Wunderground v.1.15,2013-05-21 11:07:00,
2013-05-21 07:12:00,61.8,60.4,29.83,East,99,1.0,3.0,95,0.00,,,0.00,Wunderground v.1.15,2013-05-21 11:12:00,
2013-05-21 07:17:00,61.9,60.2,29.83,ESE,110,3.0,3.0,94,0.00,,,0.00,Wunderground v.1.15,2013-05-21 11:17:00,
2013-05-21 07:22:00,62.2,60.5,29.82,SE,136,1.0,3.0,94,0.00,,,0.00,Wunderground v.1.15,2013-05-21 11:22:00,
2013-05-21 07:27:00,62.5,60.7,29.82,SE,126,0.0,5.0,94,0.00,,,0.00,Wunderground v.1.15,2013-05-21 11:27:00,
2013-05-21 07:32:00,63.0,61.2,29.82,SSE,148,1.0,3.0,94,0.00,,,0.00,Wunderground v.1.15,2013-05-21 11:32:00,
2013-05-21 07:37:00,63.4,61.3,29.82,SSE,150,2.0,3.0,93,0.00,,,0.00,Wunderground v.1.15,2013-05-21 11:37:00,
2013-05-21 07:42:00,63.7,61.3,29.83,South,187,1.0,2.0,92,0.00,,,0.00,Wunderground v.1.15,2013-05-21 11:42:00,
2013-05-21 07:47:00,64.2,61.5,29.82,East,86,1.0,2.0,91,0.00,,,0.00,Wunderground v.1.15,2013-05-21 11:47:00,
2013-05-21 07:52:00,64.1,61.4,29.82,East,91,0.0,3.0,91,0.00,,,0.00,Wunderground v.1.15,2013-05-21 11:52:00,
2013-05-21 07:57:00,64.1,61.4,29.82,ESE,112,0.0,3.0,91,0.00,,,0.00,Wunderground v.1.15,2013-05-21 11:57:00,
2013-05-21 08:02:00,64.1,61.4,29.82,East,83,1.0,4.0,91,0.00,,,0.00,Wunderground v.1.15,2013-05-21 12:02:00,
2013-05-21 08:07:00,64.1,61.4,29.82,East,84,1.0,4.0,91,0.00,,,0.00,Wunderground v.1.15,2013-05-21 12:07:00,
2013-05-21 08:12:00,64.5,61.8,29.83,SE,137,0.0,2.0,91,0.00,,,0.00,Wunderground v.1.15,2013-05-21 12:12:00,
2013-05-21 08:17:00,64.7,61.7,29.83,East,85,0.0,2.0,90,0.00,,,0.00,Wunderground v.1.15,2013-05-21 12:17:00,
2013-05-21 08:22:00,65.1,62.1,29.83,East,85,0.0,1.0,90,0.00,,,0.00,Wunderground v.1.15,2013-05-21 12:22:00,
2013-05-21 08:27:00,65.6,62.6,29.83,East,79,0.0,1.0,90,0.00,,,0.00,Wunderground v.1.15,2013-05-21 12:27:00,
2013-05-21 08:32:00,66.1,63.1,29.83,East,79,0.0,0.0,90,0.00,,,0.00,Wunderground v.1.15,2013-05-21 12:32:00,
2013-05-21 08:37:00,65.9,62.9,29.83,East,94,0.0,0.0,90,0.00,,,0.00,Wunderground v.1.15,2013-05-21 12:37:00,
2013-05-21 08:42:00,65.8,63.1,29.83,SSE,157,0.0,0.0,91,0.00,,,0.00,Wunderground v.1.15,2013-05-21 12:42:00,
2013-05-21 08:47:00,65.9,63.2,29.83,SSE,148,0.0,0.0,91,0.00,,,0.00,Wunderground v.1.15,2013-05-21 12:47:00,
2013-05-21 08:52:00,66.1,63.4,29.83,SE,124,0.0,0.0,91,0.00,,,0.00,Wunderground v.1.15,2013-05-21 12:52:00,
2013-05-21 08:57:00,66.3,63.0,29.84,NW,312,1.0,2.0,89,0.00,,,0.00,Wunderground v.1.15,2013-05-21 12:57:00,
2013-05-21 09:02:00,66.4,63.4,29.84,SE,136,0.0,1.0,90,0.00,,,0.00,Wunderground v.1.15,2013-05-21 13:02:00,
2013-05-21 09:07:00,66.5,63.2,29.83,SE,136,0.0,1.0,89,0.00,,,0.00,Wunderground v.1.15,2013-05-21 13:07:00,
2013-05-21 09:12:00,66.6,63.3,29.83,West,280,0.0,1.0,89,0.00,,,0.00,Wunderground v.1.15,2013-05-21 13:12:00,
2013-05-21 09:17:00,66.7,63.4,29.83,WSW,238,1.0,3.0,89,0.00,,,0.00,Wunderground v.1.15,2013-05-21 13:17:00,
2013-05-21 09:22:00,66.9,63.6,29.83,SW,214,0.0,1.0,89,0.00,,,0.00,Wunderground v.1.15,2013-05-21 13:22:00,
2013-05-21 09:27:00,67.6,64.2,29.83,SE,125,0.0,2.0,89,0.00,,,0.00,Wunderground v.1.15,2013-05-21 13:27:00,
2013-05-21 09:32:00,67.7,64.3,29.83,SE,125,0.0,0.0,89,0.00,,,0.00,Wunderground v.1.15,2013-05-21 13:32:00,
2013-05-21 09:37:00,67.9,63.9,29.83,SE,126,1.0,4.0,87,0.00,,,0.00,Wunderground v.1.15,2013-05-21 13:37:00,
2013-05-21 09:42:00,67.8,64.1,29.83,NW,308,1.0,2.0,88,0.00,,,0.00,Wunderground v.1.15,2013-05-21 13:42:00,
2013-05-21 09:47:00,67.4,64.0,29.82,SE,136,1.0,3.0,89,0.00,,,0.01,Wunderground v.1.15,2013-05-21 13:47:00,
2013-05-21 09:52:00,67.1,64.1,29.82,WSW,252,0.0,1.0,90,0.00,,,0.01,Wunderground v.1.15,2013-05-21 13:52:00,
2013-05-21 09:57:00,67.0,64.3,29.83,West,276,0.0,2.0,91,0.00,,,0.01,Wunderground v.1.15,2013-05-21 13:57:00,
2013-05-21 10:02:00,66.8,64.4,29.83,West,281,0.0,0.0,92,0.00,,,0.01,Wunderground v.1.15,2013-05-21 14:02:00,
2013-05-21 10:07:00,66.6,64.2,29.83,East,86,0.0,0.0,92,0.00,,,0.01,Wunderground v.1.15,2013-05-21 14:07:00,
2013-05-21 10:12:00,66.4,64.3,29.83,NNW,328,0.0,3.0,93,0.00,,,0.01,Wunderground v.1.15,2013-05-21 14:12:00,
2013-05-21 10:17:00,66.6,64.2,29.83,NNW,347,1.0,3.0,92,0.00,,,0.01,Wunderground v.1.15,2013-05-21 14:17:00,
2013-05-21 10:22:00,66.8,64.4,29.83,NNW,328,2.0,2.0,92,0.00,,,0.01,Wunderground v.1.15,2013-05-21 14:22:00,
2013-05-21 10:27:00,67.3,64.9,29.82,North,359,0.0,2.0,92,0.00,,,0.01,Wunderground v.1.15,2013-05-21 14:27:00,
2013-05-21 10:32:00,67.7,64.7,29.83,NW,309,0.0,2.0,90,0.00,,,0.01,Wunderground v.1.15,2013-05-21 14:32:00,
2013-05-21 10:37:00,68.2,65.2,29.83,NW,309,0.0,2.0,90,0.00,,,0.01,Wunderground v.1.15,2013-05-21 14:37:00,
2013-05-21 10:42:00,68.5,65.1,29.83,WNW,287,2.0,3.0,89,0.00,,,0.01,Wunderground v.1.15,2013-05-21 14:42:00,
2013-05-21 10:47:00,68.8,65.4,29.82,WSW,258,0.0,3.0,89,0.00,,,0.01,Wunderground v.1.15,2013-05-21 14:47:00,
2013-05-21 10:52:00,69.0,65.3,29.82,NW,309,1.0,4.0,88,0.00,,,0.01,Wunderground v.1.15,2013-05-21 14:52:00,
2013-05-21 10:57:00,69.4,65.4,29.82,NW,315,2.0,4.0,87,0.00,,,0.01,Wunderground v.1.15,2013-05-21 14:57:00,
2013-05-21 11:02:00,69.4,65.4,29.82,NW,315,1.0,4.0,87,0.00,,,0.01,Wunderground v.1.15,2013-05-21 15:02:00,
2013-05-21 11:07:00,69.6,65.2,29.82,WNW,287,3.0,4.0,86,0.00,,,0.01,Wunderground v.1.15,2013-05-21 15:07:00,
2013-05-21 11:12:00,70.2,64.8,29.81,NNW,344,1.0,6.0,83,0.00,,,0.01,Wunderground v.1.15,2013-05-21 15:12:00,
2013-05-21 11:17:00,71.4,67.0,29.81,South,181,0.0,6.0,86,0.00,,,0.01,Wunderground v.1.15,2013-05-21 15:17:00,
2013-05-21 11:22:00,72.1,65.6,29.81,West,266,1.0,7.0,80,0.00,,,0.01,Wunderground v.1.15,2013-05-21 15:22:00,
2013-05-21 11:27:00,72.4,65.9,29.81,SSE,153,1.0,7.0,80,0.00,,,0.01,Wunderground v.1.15,2013-05-21 15:27:00,
2013-05-21 11:32:00,72.9,65.6,29.81,West,277,0.0,6.0,78,0.00,,,0.01,Wunderground v.1.15,2013-05-21 15:32:00,
2013-05-21 11:37:00,73.1,65.8,29.81,SE,124,1.0,6.0,78,0.00,,,0.01,Wunderground v.1.15,2013-05-21 15:37:00,
2013-05-21 11:42:00,73.3,63.7,29.81,North,3,5.0,10.0,72,0.00,,,0.01,Wunderground v.1.15,2013-05-21 15:42:00,
2013-05-21 11:47:00,73.1,63.9,29.81,WNW,297,1.0,11.0,73,0.00,,,0.01,Wunderground v.1.15,2013-05-21 15:47:00,
2013-05-21 11:52:00,72.7,63.5,29.81,NW,321,8.0,10.0,73,0.00,,,0.01,Wunderground v.1.15,2013-05-21 15:52:00,
2013-05-21 11:57:00,72.4,64.8,29.81,North,354,1.0,10.0,77,0.00,,,0.01,Wunderground v.1.15,2013-05-21 15:57:00,
2013-05-21 12:02:00,72.9,65.3,29.81,NNE,18,1.0,5.0,77,0.00,,,0.01,Wunderground v.1.15,2013-05-21 16:02:00,
2013-05-21 12:07:00,72.9,64.1,29.81,NW,308,2.0,5.0,74,0.00,,,0.01,Wunderground v.1.15,2013-05-21 16:07:00,
2013-05-21 12:12:00,73.2,64.8,29.81,NNW,343,4.0,6.0,75,0.00,,,0.01,Wunderground v.1.15,2013-05-21 16:12:00,
2013-05-21 12:17:00,72.4,63.6,29.81,SW,232,6.0,10.0,74,0.00,,,0.01,Wunderground v.1.15,2013-05-21 16:17:00,
2013-05-21 12:22:00,72.7,63.9,29.81,NW,317,7.0,7.0,74,0.00,,,0.01,Wunderground v.1.15,2013-05-21 16:22:00,
2013-05-21 12:27:00,73.5,63.5,29.81,East,100,2.0,9.0,71,0.00,,,0.01,Wunderground v.1.15,2013-05-21 16:27:00,
2013-05-21 12:32:00,74.7,65.1,29.81,WSW,249,5.0,10.0,72,0.00,,,0.01,Wunderground v.1.15,2013-05-21 16:32:00,
2013-05-21 12:37:00,74.6,65.8,29.81,NW,308,5.0,11.0,74,0.00,,,0.01,Wunderground v.1.15,2013-05-21 16:37:00,
2013-05-21 12:42:00,75.2,65.6,29.80,ESE,103,3.0,6.0,72,0.00,,,0.01,Wunderground v.1.15,2013-05-21 16:42:00,
2013-05-21 12:47:00,75.9,63.7,29.81,North,352,3.0,8.0,66,0.00,,,0.01,Wunderground v.1.15,2013-05-21 16:47:00,
2013-05-21 12:52:00,76.1,63.9,29.80,WNW,287,2.0,7.0,66,0.00,,,0.01,Wunderground v.1.15,2013-05-21 16:52:00,
2013-05-21 12:57:00,75.9,63.7,29.80,NW,316,6.0,9.0,66,0.00,,,0.01,Wunderground v.1.15,2013-05-21 16:57:00,
2013-05-21 13:02:00,75.9,64.6,29.80,NNW,336,3.0,5.0,68,0.00,,,0.01,Wunderground v.1.15,2013-05-21 17:02:00,
2013-05-21 13:07:00,76.4,64.2,29.81,North,354,1.0,8.0,66,0.00,,,0.01,Wunderground v.1.15,2013-05-21 17:07:00,
2013-05-21 13:12:00,75.8,66.1,29.81,WNW,288,1.0,9.0,72,0.00,,,0.01,Wunderground v.1.15,2013-05-21 17:12:00,
2013-05-21 13:17:00,76.4,64.6,29.81,NW,308,1.0,9.0,67,0.00,,,0.01,Wunderground v.1.15,2013-05-21 17:17:00,
2013-05-21 13:22:00,76.8,64.6,29.80,WSW,250,2.0,8.0,66,0.00,,,0.01,Wunderground v.1.15,2013-05-21 17:22:00,
2013-05-21 13:27:00,76.1,63.0,29.81,WSW,252,1.0,8.0,64,0.00,,,0.01,Wunderground v.1.15,2013-05-21 17:27:00,
2013-05-21 13:32:00,75.3,61.8,29.81,NW,307,6.0,7.0,63,0.00,,,0.01,Wunderground v.1.15,2013-05-21 17:32:00,
2013-05-21 13:37:00,74.6,62.9,29.80,West,260,4.0,9.0,67,0.00,,,0.01,Wunderground v.1.15,2013-05-21 17:37:00,
2013-05-21 13:42:00,75.2,65.1,29.80,NNW,338,0.0,4.0,71,0.00,,,0.01,Wunderground v.1.15,2013-05-21 17:42:00,
2013-05-21 13:47:00,76.4,63.8,29.80,SE,138,2.0,8.0,65,0.00,,,0.01,Wunderground v.1.15,2013-05-21 17:47:00,
2013-05-21 13:52:00,76.4,62.4,29.80,WSW,246,1.0,6.0,62,0.00,,,0.01,Wunderground v.1.15,2013-05-21 17:52:00,
2013-05-21 13:57:00,75.9,62.8,29.80,WSW,256,0.0,6.0,64,0.00,,,0.01,Wunderground v.1.15,2013-05-21 17:57:00,
2013-05-21 14:02:00,76.1,62.6,29.79,ENE,78,2.0,2.0,63,0.00,,,0.01,Wunderground v.1.15,2013-05-21 18:02:00,
2013-05-21 14:07:00,76.0,62.5,29.79,North,359,1.0,4.0,63,0.00,,,0.01,Wunderground v.1.15,2013-05-21 18:07:00,
2013-05-21 14:12:00,75.7,62.2,29.79,NW,321,0.0,5.0,63,0.00,,,0.01,Wunderground v.1.15,2013-05-21 18:12:00,
2013-05-21 14:17:00,75.9,61.9,29.79,NNE,32,3.0,9.0,62,0.00,,,0.01,Wunderground v.1.15,2013-05-21 18:17:00,
2013-05-21 14:22:00,76.1,63.9,29.80,NW,323,6.0,6.0,66,0.00,,,0.01,Wunderground v.1.15,2013-05-21 18:22:00,
2013-05-21 14:27:00,76.2,63.6,29.80,WNW,299,1.0,9.0,65,0.00,,,0.01,Wunderground v.1.15,2013-05-21 18:27:00,
2013-05-21 14:32:00,76.4,63.3,29.80,NNE,15,4.0,7.0,64,0.00,,,0.01,Wunderground v.1.15,2013-05-21 18:32:00,
2013-05-21 14:37:00,76.6,63.5,29.80,WNW,302,3.0,7.0,64,0.00,,,0.01,Wunderground v.1.15,2013-05-21 18:37:00,
2013-05-21 14:42:00,76.5,63.0,29.80,WSW,257,0.0,5.0,63,0.00,,,0.01,Wunderground v.1.15,2013-05-21 18:42:00,
2013-05-21 14:47:00,77.2,64.1,29.79,WNW,298,2.0,6.0,64,0.00,,,0.01,Wunderground v.1.15,2013-05-21 18:47:00,
2013-05-21 14:52:00,77.7,63.6,29.79,NW,309,4.0,8.0,62,0.00,,,0.01,Wunderground v.1.15,2013-05-21 18:52:00,
2013-05-21 14:57:00,77.5,63.5,29.79,SW,226,1.0,8.0,62,0.00,,,0.01,Wunderground v.1.15,2013-05-21 18:57:00,
2013-05-21 15:02:00,78.6,64.5,29.79,NNW,347,2.0,3.0,62,0.00,,,0.01,Wunderground v.1.15,2013-05-21 19:02:00,
2013-05-21 15:07:00,78.2,63.6,29.79,West,280,5.0,8.0,61,0.00,,,0.01,Wunderground v.1.15,2013-05-21 19:07:00,
2013-05-21 15:12:00,77.6,64.0,29.79,NNW,328,2.0,8.0,63,0.00,,,0.01,Wunderground v.1.15,2013-05-21 19:12:00,
2013-05-21 15:17:00,77.5,63.5,29.79,WSW,254,4.0,8.0,62,0.00,,,0.01,Wunderground v.1.15,2013-05-21 19:17:00,
2013-05-21 15:22:00,78.1,63.1,29.78,WNW,291,0.0,4.0,60,0.00,,,0.01,Wunderground v.1.15,2013-05-21 19:22:00,
2013-05-21 15:27:00,78.6,63.1,29.77,SSW,201,1.0,6.0,59,0.00,,,0.01,Wunderground v.1.15,2013-05-21 19:27:00,
2013-05-21 15:32:00,78.9,63.4,29.77,WSW,247,5.0,5.0,59,0.00,,,0.01,Wunderground v.1.15,2013-05-21 19:32:00,
2013-05-21 15:37:00,79.2,64.6,29.77,SSE,152,0.0,5.0,61,0.00,,,0.01,Wunderground v.1.15,2013-05-21 19:37:00,
2013-05-21 15:42:00,79.0,62.0,29.77,NW,314,5.0,7.0,56,0.00,,,0.01,Wunderground v.1.15,2013-05-21 19:42:00,
2013-05-21 15:47:00,78.3,63.7,29.76,South,174,3.0,7.0,61,0.00,,,0.01,Wunderground v.1.15,2013-05-21 19:47:00,
2013-05-21 15:52:00,78.5,62.5,29.76,SSE,154,4.0,7.0,58,0.00,,,0.01,Wunderground v.1.15,2013-05-21 19:52:00,
2013-05-21 15:57:00,78.4,62.4,29.76,WNW,287,2.0,7.0,58,0.00,,,0.01,Wunderground v.1.15,2013-05-21 19:57:00,
2013-05-21 16:02:00,78.6,62.6,29.76,WSW,246,1.0,2.0,58,0.00,,,0.01,Wunderground v.1.15,2013-05-21 20:02:00,
2013-05-21 16:07:00,78.6,61.6,29.76,NW,323,2.0,7.0,56,0.00,,,0.01,Wunderground v.1.15,2013-05-21 20:07:00,
2013-05-21 16:12:00,78.3,62.8,29.76,West,259,1.0,4.0,59,0.00,,,0.01,Wunderground v.1.15,2013-05-21 20:12:00,
2013-05-21 16:17:00,78.5,63.5,29.76,West,264,3.0,4.0,60,0.00,,,0.01,Wunderground v.1.15,2013-05-21 20:17:00,
2013-05-21 16:22:00,78.8,64.2,29.76,East,84,0.0,3.0,61,0.00,,,0.01,Wunderground v.1.15,2013-05-21 20:22:00,
2013-05-21 16:27:00,79.0,63.4,29.75,WNW,291,1.0,4.0,59,0.00,,,0.01,Wunderground v.1.15,2013-05-21 20:27:00,
2013-05-21 16:32:00,78.6,62.1,29.76,West,265,0.0,3.0,57,0.00,,,0.01,Wunderground v.1.15,2013-05-21 20:32:00,
2013-05-21 16:37:00,78.2,62.7,29.77,NW,325,3.0,4.0,59,0.00,,,0.01,Wunderground v.1.15,2013-05-21 20:37:00,
2013-05-21 16:42:00,77.9,63.8,29.76,NNW,343,3.0,3.0,62,0.00,,,0.01,Wunderground v.1.15,2013-05-21 20:42:00,
2013-05-21 16:47:00,77.6,62.6,29.76,NW,318,0.0,3.0,60,0.00,,,0.01,Wunderground v.1.15,2013-05-21 20:47:00,
2013-05-21 16:52:00,78.0,62.0,29.76,NW,307,1.0,1.0,58,0.00,,,0.01,Wunderground v.1.15,2013-05-21 20:52:00,
2013-05-21 16:57:00,77.9,62.4,29.76,SW,214,1.0,2.0,59,0.00,,,0.01,Wunderground v.1.15,2013-05-21 20:57:00,
2013-05-21 17:02:00,77.7,63.2,29.75,North,10,1.0,2.0,61,0.00,,,0.01,Wunderground v.1.15,2013-05-21 21:02:00,
2013-05-21 17:07:00,78.1,63.6,29.75,West,262,0.0,2.0,61,0.00,,,0.01,Wunderground v.1.15,2013-05-21 21:07:00,
2013-05-21 17:12:00,78.2,63.2,29.75,NNW,329,2.0,5.0,60,0.00,,,0.01,Wunderground v.1.15,2013-05-21 21:12:00,
2013-05-21 17:17:00,78.3,62.8,29.75,NW,311,3.0,5.0,59,0.00,,,0.01,Wunderground v.1.15,2013-05-21 21:17:00,
2013-05-21 17:22:00,77.9,61.9,29.75,WNW,299,1.0,5.0,58,0.00,,,0.01,Wunderground v.1.15,2013-05-21 21:22:00,
2013-05-21 17:27:00,78.1,63.1,29.75,WSW,252,3.0,5.0,60,0.00,,,0.01,Wunderground v.1.15,2013-05-21 21:27:00,
2013-05-21 17:32:00,77.8,62.3,29.75,NW,311,1.0,4.0,59,0.00,,,0.01,Wunderground v.1.15,2013-05-21 21:32:00,
2013-05-21 17:37:00,77.5,63.5,29.75,WNW,297,3.0,4.0,62,0.00,,,0.01,Wunderground v.1.15,2013-05-21 21:37:00,
2013-05-21 17:42:00,77.0,63.0,29.75,WNW,303,2.0,4.0,62,0.00,,,0.01,Wunderground v.1.15,2013-05-21 21:42:00,
2013-05-21 17:47:00,76.8,63.2,29.74,WSW,254,0.0,4.0,63,0.00,,,0.01,Wunderground v.1.15,2013-05-21 21:47:00,
2013-05-21 17:52:00,77.0,63.4,29.74,WNW,302,0.0,1.0,63,0.00,,,0.01,Wunderground v.1.15,2013-05-21 21:52:00,
2013-05-21 17:57:00,77.3,62.8,29.74,West,271,1.0,2.0,61,0.00,,,0.01,Wunderground v.1.15,2013-05-21 21:57:00,
2013-05-21 18:02:00,77.1,63.5,29.74,WNW,288,0.0,1.0,63,0.00,,,0.01,Wunderground v.1.15,2013-05-21 22:02:00,
2013-05-21 18:07:00,77.0,64.3,29.74,NW,308,0.0,4.0,65,0.00,,,0.01,Wunderground v.1.15,2013-05-21 22:07:00,
2013-05-21 18:12:00,77.6,64.9,29.74,NW,323,2.0,4.0,65,0.00,,,0.01,Wunderground v.1.15,2013-05-21 22:12:00,
2013-05-21 18:17:00,77.7,64.5,29.74,NW,323,3.0,4.0,64,0.00,,,0.01,Wunderground v.1.15,2013-05-21 22:17:00,
2013-05-21 18:22:00,77.8,64.2,29.74,WNW,299,0.0,3.0,63,0.00,,,0.01,Wunderground v.1.15,2013-05-21 22:22:00,
2013-05-21 18:27:00,77.8,65.1,29.73,WNW,297,0.0,3.0,65,0.00,,,0.01,Wunderground v.1.15,2013-05-21 22:27:00,
2013-05-21 18:32:00,78.0,63.5,29.73,ENE,58,1.0,2.0,61,0.00,,,0.01,Wunderground v.1.15,2013-05-21 22:32:00,
2013-05-21 18:37:00,77.7,63.6,29.73,ESE,119,6.0,7.0,62,0.00,,,0.01,Wunderground v.1.15,2013-05-21 22:37:00,
2013-05-21 18:42:00,76.9,63.8,29.73,East,80,3.0,8.0,64,0.00,,,0.01,Wunderground v.1.15,2013-05-21 22:42:00,
2013-05-21 18:47:00,76.3,63.7,29.73,SSE,148,6.0,8.0,65,0.00,,,0.01,Wunderground v.1.15,2013-05-21 22:47:00,
2013-05-21 18:52:00,75.6,63.4,29.74,SE,138,14.0,15.0,66,0.00,,,0.01,Wunderground v.1.15,2013-05-21 22:52:00,
2013-05-21 18:57:00,73.8,63.4,29.75,SE,131,7.0,15.0,70,0.00,,,0.01,Wunderground v.1.15,2013-05-21 22:57:00,
2013-05-21 19:02:00,72.1,63.0,29.75,ESE,122,11.0,14.0,73,0.00,,,0.01,Wunderground v.1.15,2013-05-21 23:02:00,
2013-05-21 19:07:00,70.8,62.9,29.74,SE,139,10.0,16.0,76,0.00,,,0.01,Wunderground v.1.15,2013-05-21 23:07:00,
2013-05-21 19:12:00,70.0,62.5,29.74,SSE,147,6.0,16.0,77,0.00,,,0.01,Wunderground v.1.15,2013-05-21 23:12:00,
2013-05-21 19:17:00,69.2,62.0,29.75,ESE,116,9.0,16.0,78,0.00,,,0.01,Wunderground v.1.15,2013-05-21 23:17:00,
2013-05-21 19:22:00,68.5,61.4,29.75,ESE,113,7.0,16.0,78,0.00,,,0.01,Wunderground v.1.15,2013-05-21 23:22:00,
2013-05-21 19:27:00,67.9,61.1,29.75,SE,145,9.0,18.0,79,0.00,,,0.01,Wunderground v.1.15,2013-05-21 23:27:00,
2013-05-21 19:32:00,67.0,60.6,29.76,ENE,62,10.0,18.0,80,0.00,,,0.01,Wunderground v.1.15,2013-05-21 23:32:00,
2013-05-21 19:37:00,66.1,59.7,29.75,East,88,10.0,20.0,80,0.00,,,0.01,Wunderground v.1.15,2013-05-21 23:37:00,
2013-05-21 19:42:00,65.5,59.5,29.75,ESE,103,17.0,19.0,81,0.00,,,0.01,Wunderground v.1.15,2013-05-21 23:42:00,
2013-05-21 19:47:00,64.5,58.5,29.76,SE,127,14.0,21.0,81,0.00,,,0.01,Wunderground v.1.15,2013-05-21 23:47:00,
2013-05-21 19:52:00,63.3,57.7,29.77,ESE,117,13.0,23.0,82,0.00,,,0.01,Wunderground v.1.15,2013-05-21 23:52:00,
2013-05-21 19:57:00,62.5,57.3,29.77,SSE,154,5.0,23.0,83,0.00,,,0.01,Wunderground v.1.15,2013-05-21 23:57:00,
2013-05-21 20:02:00,61.4,56.5,29.77,ENE,72,15.0,17.0,84,0.00,,,0.01,Wunderground v.1.15,2013-05-22 00:02:00,
2013-05-21 20:07:00,60.2,55.7,29.77,ENE,63,17.0,23.0,85,0.00,,,0.01,Wunderground v.1.15,2013-05-22 00:07:00,
2013-05-21 20:12:00,59.1,55.2,29.77,SE,138,5.0,17.0,87,0.00,,,0.01,Wunderground v.1.15,2013-05-22 00:12:00,
2013-05-21 20:17:00,58.5,55.3,29.75,SE,136,6.0,20.0,89,0.00,,,0.02,Wunderground v.1.15,2013-05-22 00:17:00,
2013-05-21 20:22:00,57.6,54.7,29.75,SSE,156,17.0,24.0,90,0.00,,,0.02,Wunderground v.1.15,2013-05-22 00:22:00,
2013-05-21 20:27:00,56.8,54.2,29.75,East,90,8.0,24.0,91,0.00,,,0.02,Wunderground v.1.15,2013-05-22 00:27:00,
2013-05-21 20:32:00,56.1,53.5,29.76,SE,135,17.0,22.0,91,0.00,,,0.02,Wunderground v.1.15,2013-05-22 00:32:00,
2013-05-21 20:38:00,55.7,53.4,29.77,SSE,160,5.0,22.0,92,0.00,,,0.02,Wunderground v.1.15,2013-05-22 00:38:00,
2013-05-21 20:43:00,55.4,53.1,29.77,SE,124,7.0,19.0,92,0.00,,,0.02,Wunderground v.1.15,2013-05-22 00:43:00,
2013-05-21 20:48:00,55.2,52.9,29.77,ESE,110,10.0,19.0,92,0.00,,,0.02,Wunderground v.1.15,2013-05-22 00:48:00,
2013-05-21 20:53:00,54.8,52.5,29.78,SE,128,3.0,12.0,92,0.00,,,0.02,Wunderground v.1.15,2013-05-22 00:53:00,
2013-05-21 20:58:00,54.5,52.5,29.78,SSE,148,8.0,16.0,93,0.00,,,0.02,Wunderground v.1.15,2013-05-22 00:58:00,
2013-05-21 21:03:00,54.5,52.5,29.79,SE,127,8.0,14.0,93,0.00,,,0.02,Wunderground v.1.15,2013-05-22 01:03:00,
2013-05-21 21:08:00,54.4,52.4,29.80,SE,143,6.0,14.0,93,0.00,,,0.02,Wunderground v.1.15,2013-05-22 01:08:00,
2013-05-21 21:13:00,54.2,52.2,29.80,South,189,2.0,13.0,93,0.00,,,0.02,Wunderground v.1.15,2013-05-22 01:13:00,
2013-05-21 21:18:00,53.9,51.9,29.79,NE,47,4.0,13.0,93,0.00,,,0.02,Wunderground v.1.15,2013-05-22 01:18:00,
2013-05-21 21:23:00,54.2,52.8,29.84,NW,320,5.0,11.0,95,0.00,,,0.02,Wunderground v.1.15,2013-05-22 01:23:00,
2013-05-21 21:28:00,54.9,53.5,29.85,NNW,347,6.0,11.0,95,0.00,,,0.03,Wunderground v.1.15,2013-05-22 01:28:00,
2013-05-21 21:33:00,55.1,53.4,29.84,ENE,74,5.0,10.0,94,0.23,,,0.06,Wunderground v.1.15,2013-05-22 01:33:00,
2013-05-21 21:38:00,55.1,53.4,29.83,East,79,3.0,12.0,94,0.14,,,0.07,Wunderground v.1.15,2013-05-22 01:38:00,
2013-05-21 21:43:00,54.7,52.7,29.84,ENE,76,6.0,9.0,93,0.11,,,0.08,Wunderground v.1.15,2013-05-22 01:43:00,
2013-05-21 21:48:00,54.9,53.5,29.86,SSW,202,1.0,9.0,95,0.39,,,0.12,Wunderground v.1.15,2013-05-22 01:48:00,
2013-05-21 21:53:00,54.9,53.2,29.85,SE,124,8.0,10.0,94,2.29,,,0.20,Wunderground v.1.15,2013-05-22 01:53:00,
2013-05-21 21:59:00,54.3,52.3,29.84,SE,143,6.0,7.0,93,0.38,,,0.30,Wunderground v.1.15,2013-05-22 01:59:00,
2013-05-21 22:04:00,53.8,52.1,29.83,ESE,111,6.0,13.0,94,0.22,,,0.32,Wunderground v.1.15,2013-05-22 02:04:00,
2013-05-21 22:10:00,53.7,52.0,29.82,SE,145,0.0,5.0,94,0.34,,,0.35,Wunderground v.1.15,2013-05-22 02:10:00,
2013-05-21 22:15:00,53.7,52.0,29.80,SE,145,0.0,5.0,94,0.25,,,0.37,Wunderground v.1.15,2013-05-22 02:15:00,
2013-05-21 22:20:00,53.7,52.3,29.81,South,178,5.0,5.0,95,0.30,,,0.40,Wunderground v.1.15,2013-05-22 02:20:00,
2013-05-21 22:25:00,53.7,52.0,29.83,South,172,5.0,7.0,94,0.27,,,0.42,Wunderground v.1.15,2013-05-22 02:25:00,
2013-05-21 22:30:00,53.3,51.6,29.84,East,86,3.0,11.0,94,0.39,,,0.45,Wunderground v.1.15,2013-05-22 02:30:00,
2013-05-21 22:35:00,52.8,51.1,29.82,East,92,9.0,16.0,94,0.33,,,0.50,Wunderground v.1.15,2013-05-22 02:35:00,
2013-05-21 22:40:00,52.4,50.7,29.80,SE,136,7.0,11.0,94,0.24,,,0.52,Wunderground v.1.15,2013-05-22 02:40:00,
2013-05-21 22:45:00,52.5,51.1,29.79,SE,143,7.0,17.0,95,0.19,,,0.53,Wunderground v.1.15,2013-05-22 02:45:00,
2013-05-21 22:50:00,52.6,50.9,29.79,SSW,207,7.0,17.0,94,0.22,,,0.55,Wunderground v.1.15,2013-05-22 02:50:00,
2013-05-21 22:55:00,52.6,50.9,29.80,SSE,158,10.0,18.0,94,0.29,,,0.58,Wunderground v.1.15,2013-05-22 02:55:00,
2013-05-21 23:00:00,52.4,50.7,29.80,SE,143,8.0,8.0,94,0.29,,,0.61,Wunderground v.1.15,2013-05-22 03:00:00,
2013-05-21 23:05:00,52.4,50.7,29.78,East,98,10.0,17.0,94,0.24,,,0.63,Wunderground v.1.15,2013-05-22 03:05:00,
2013-05-21 23:10:00,52.3,50.6,29.78,ESE,123,12.0,16.0,94,0.21,,,0.65,Wunderground v.1.15,2013-05-22 03:10:00,
2013-05-21 23:15:00,52.2,50.5,29.75,East,96,9.0,18.0,94,0.15,,,0.66,Wunderground v.1.15,2013-05-22 03:15:00,
2013-05-21 23:20:00,52.6,50.9,29.72,East,93,15.0,22.0,94,0.13,,,0.67,Wunderground v.1.15,2013-05-22 03:20:00,
2013-05-21 23:25:00,53.0,51.3,29.74,East,92,6.0,25.0,94,0.09,,,0.67,Wunderground v.1.15,2013-05-22 03:25:00,
2013-05-21 23:30:00,53.3,51.6,29.74,WSW,240,3.0,11.0,94,0.05,,,0.67,Wunderground v.1.15,2013-05-22 03:30:00,
2013-05-21 23:35:00,53.2,51.5,29.74,WNW,302,0.0,11.0,94,0.04,,,0.67,Wunderground v.1.15,2013-05-22 03:35:00,
2013-05-21 23:40:00,53.4,51.7,29.75,South,191,3.0,6.0,94,0.00,,,0.67,Wunderground v.1.15,2013-05-22 03:40:00,
2013-05-21 23:45:00,53.1,51.1,29.77,SE,124,12.0,12.0,93,0.00,,,0.67,Wunderground v.1.15,2013-05-22 03:45:00,
2013-05-21 23:50:00,52.5,50.5,29.76,ESE,121,9.0,14.0,93,0.00,,,0.67,Wunderground v.1.15,2013-05-22 03:50:00,
2013-05-21 23:55:00,51.9,49.9,29.77,East,100,6.0,18.0,93,0.00,,,0.67,Wunderground v.1.15,2013-05-22 03:55:00,